KSNA

John Wayne-Orange County Airport

Santa Ana, California, USA
METAR KSNA 151853Z 20012KT 10SM FEW014 FEW055 BKN250 25/18 A2996 RMK AO2 SLP145 T02500178
Observed Flight Rules
Jul-15 @ 18:53 UTC (46 minutes ago) Visual Flight Rules
Wind Visibility Clouds
200° at 12 knots 10 miles
  • Few at 1,400' AGL
  • Few at 5,500' AGL
  • Broken at 25,000' AGL
Temperatures Readings
Current 25°C / 77°F
Dewpoint 18°C / 64°F
Humidity 65%
Altimeter 29.96" Hg
Pressure 1014.5 hPa
Elevation 16
METAR KSNA 151853Z 20012KT 10SM FEW014 FEW055 BKN250 25/18 A2996 RMK AO2 SLP145 T02500178
Observed Flight Rules
Jul-15 @ 18:53 UTC
(46 minutes ago)
VFR
Wind Visibility
200° at 12 knots 10 miles
Clouds
  • Few at 1,400' AGL
  • Few at 5,500' AGL
  • Broken at 25,000' AGL
Temperature Dewpoint
25°C / 77°F 18°C / 64°F
Humidity Altimeter Pressure
65% 29.96" Hg 1014.5 hPa